sensor_id;sensor_type;location;lat;lon;timestamp;temperature;humidity
8099;DHT22;4092;47.876;9.372;2023-04-25T00:00:05;7.00;99.90
8099;DHT22;4092;47.876;9.372;2023-04-25T00:02:34;7.00;99.90
8099;DHT22;4092;47.876;9.372;2023-04-25T00:05:01;7.10;99.90
8099;DHT22;4092;47.876;9.372;2023-04-25T00:07:29;7.00;99.90
8099;DHT22;4092;47.876;9.372;2023-04-25T00:09:56;6.80;99.90
8099;DHT22;4092;47.876;9.372;2023-04-25T00:12:23;6.70;99.90
8099;DHT22;4092;47.876;9.372;2023-04-25T00:14:50;6.70;99.90
8099;DHT22;4092;47.876;9.372;2023-04-25T00:17:19;6.60;99.90
8099;DHT22;4092;47.876;9.372;2023-04-25T00:19:47;6.60;99.90
8099;DHT22;4092;47.876;9.372;2023-04-25T00:22:15;6.60;99.90
8099;DHT22;4092;47.876;9.372;2023-04-25T00:24:43;6.50;99.90
8099;DHT22;4092;47.876;9.372;2023-04-25T00:27:10;6.40;99.90
8099;DHT22;4092;47.876;9.372;2023-04-25T00:29:37;6.10;99.90
8099;DHT22;4092;47.876;9.372;2023-04-25T00:32:04;5.90;99.90
8099;DHT22;4092;47.876;9.372;2023-04-25T00:34:32;5.70;99.90
8099;DHT22;4092;47.876;9.372;2023-04-25T00:37:00;5.50;99.90
8099;DHT22;4092;47.876;9.372;2023-04-25T00:39:28;5.30;99.90
8099;DHT22;4092;47.876;9.372;2023-04-25T00:41:55;5.20;99.90
8099;DHT22;4092;47.876;9.372;2023-04-25T00:44:22;5.20;99.90
8099;DHT22;4092;47.876;9.372;2023-04-25T00:46:52;5.10;99.90
8099;DHT22;4092;47.876;9.372;2023-04-25T00:49:20;5.10;99.90
8099;DHT22;4092;47.876;9.372;2023-04-25T00:51:48;5.10;99.90
8099;DHT22;4092;47.876;9.372;2023-04-25T00:54:16;5.10;99.90
8099;DHT22;4092;47.876;9.372;2023-04-25T00:56:44;5.00;99.90
8099;DHT22;4092;47.876;9.372;2023-04-25T00:59:12;5.10;99.90
8099;DHT22;4092;47.876;9.372;2023-04-25T01:01:41;5.20;99.90
8099;DHT22;4092;47.876;9.372;2023-04-25T01:04:09;5.20;99.90
8099;DHT22;4092;47.876;9.372;2023-04-25T01:06:36;5.10;99.90
8099;DHT22;4092;47.876;9.372;2023-04-25T01:09:05;5.00;99.90
8099;DHT22;4092;47.876;9.372;2023-04-25T01:11:32;4.90;99.90
8099;DHT22;4092;47.876;9.372;2023-04-25T01:14:00;4.80;99.90
8099;DHT22;4092;47.876;9.372;2023-04-25T01:16:28;4.80;99.90
8099;DHT22;4092;47.876;9.372;2023-04-25T01:18:55;4.80;99.90
8099;DHT22;4092;47.876;9.372;2023-04-25T01:21:24;4.70;99.90
8099;DHT22;4092;47.876;9.372;2023-04-25T01:23:54;4.80;99.90
8099;DHT22;4092;47.876;9.372;2023-04-25T01:26:21;4.90;99.90
8099;DHT22;4092;47.876;9.372;2023-04-25T01:28:49;4.90;99.90
8099;DHT22;4092;47.876;9.372;2023-04-25T01:31:17;4.90;99.90
8099;DHT22;4092;47.876;9.372;2023-04-25T01:33:45;4.90;99.90
8099;DHT22;4092;47.876;9.372;2023-04-25T01:36:12;5.00;99.90
8099;DHT22;4092;47.876;9.372;2023-04-25T01:38:41;5.10;99.90
8099;DHT22;4092;47.876;9.372;2023-04-25T01:41:09;5.20;99.90
8099;DHT22;4092;47.876;9.372;2023-04-25T01:43:36;5.20;99.90
8099;DHT22;4092;47.876;9.372;2023-04-25T01:46:04;5.20;99.90
8099;DHT22;4092;47.876;9.372;2023-04-25T01:48:31;5.20;99.90
8099;DHT22;4092;47.876;9.372;2023-04-25T01:50:58;5.20;99.90
8099;DHT22;4092;47.876;9.372;2023-04-25T01:53:25;5.20;99.90
8099;DHT22;4092;47.876;9.372;2023-04-25T01:55:54;5.20;99.90
8099;DHT22;4092;47.876;9.372;2023-04-25T01:58:21;5.20;99.90
8099;DHT22;4092;47.876;9.372;2023-04-25T02:00:49;5.30;99.90
8099;DHT22;4092;47.876;9.372;2023-04-25T02:03:16;5.30;99.90
8099;DHT22;4092;47.876;9.372;2023-04-25T02:05:43;5.40;99.90
8099;DHT22;4092;47.876;9.372;2023-04-25T02:08:10;5.40;99.90
8099;DHT22;4092;47.876;9.372;2023-04-25T02:10:37;5.30;99.90
8099;DHT22;4092;47.876;9.372;2023-04-25T02:13:06;5.40;99.90
8099;DHT22;4092;47.876;9.372;2023-04-25T02:15:33;5.40;99.90
8099;DHT22;4092;47.876;9.372;2023-04-25T02:18:00;5.50;99.90
8099;DHT22;4092;47.876;9.372;2023-04-25T02:20:29;5.50;99.90
8099;DHT22;4092;47.876;9.372;2023-04-25T02:22:57;5.50;99.90
8099;DHT22;4092;47.876;9.372;2023-04-25T02:25:24;5.40;99.90
8099;DHT22;4092;47.876;9.372;2023-04-25T02:27:51;5.50;99.90
8099;DHT22;4092;47.876;9.372;2023-04-25T02:30:20;5.50;99.90
8099;DHT22;4092;47.876;9.372;2023-04-25T02:32:47;5.40;99.90
8099;DHT22;4092;47.876;9.372;2023-04-25T02:35:15;5.30;99.90
8099;DHT22;4092;47.876;9.372;2023-04-25T02:37:43;5.30;99.90
8099;DHT22;4092;47.876;9.372;2023-04-25T02:40:11;5.30;99.90
8099;DHT22;4092;47.876;9.372;2023-04-25T02:42:38;5.30;99.90
8099;DHT22;4092;47.876;9.372;2023-04-25T02:45:06;5.20;99.90
8099;DHT22;4092;47.876;9.372;2023-04-25T02:47:34;5.20;99.90
8099;DHT22;4092;47.876;9.372;2023-04-25T02:50:02;5.10;99.90
8099;DHT22;4092;47.876;9.372;2023-04-25T02:52:29;5.00;99.90
8099;DHT22;4092;47.876;9.372;2023-04-25T02:54:56;4.90;99.90
8099;DHT22;4092;47.876;9.372;2023-04-25T02:57:23;4.80;99.90
8099;DHT22;4092;47.876;9.372;2023-04-25T02:59:50;4.80;99.90
8099;DHT22;4092;47.876;9.372;2023-04-25T03:02:17;4.80;99.90
8099;DHT22;4092;47.876;9.372;2023-04-25T03:04:45;4.60;99.90
8099;DHT22;4092;47.876;9.372;2023-04-25T03:07:13;4.50;99.90
8099;DHT22;4092;47.876;9.372;2023-04-25T03:09:40;4.40;99.90
8099;DHT22;4092;47.876;9.372;2023-04-25T03:12:07;4.40;99.90
8099;DHT22;4092;47.876;9.372;2023-04-25T03:14:34;4.50;99.90
8099;DHT22;4092;47.876;9.372;2023-04-25T03:17:01;4.50;99.90
8099;DHT22;4092;47.876;9.372;2023-04-25T03:19:28;4.60;99.90
8099;DHT22;4092;47.876;9.372;2023-04-25T03:21:57;4.50;99.90
8099;DHT22;4092;47.876;9.372;2023-04-25T03:24:24;4.40;99.90
8099;DHT22;4092;47.876;9.372;2023-04-25T03:26:52;4.40;99.90
8099;DHT22;4092;47.876;9.372;2023-04-25T03:29:19;4.50;99.90
8099;DHT22;4092;47.876;9.372;2023-04-25T03:31:49;4.50;99.90
8099;DHT22;4092;47.876;9.372;2023-04-25T03:34:16;4.50;99.90
8099;DHT22;4092;47.876;9.372;2023-04-25T03:36:44;4.40;99.90
8099;DHT22;4092;47.876;9.372;2023-04-25T03:39:12;4.50;99.90
8099;DHT22;4092;47.876;9.372;2023-04-25T03:41:39;4.50;99.90
8099;DHT22;4092;47.876;9.372;2023-04-25T03:44:06;4.50;99.90
8099;DHT22;4092;47.876;9.372;2023-04-25T03:46:33;4.50;99.90
8099;DHT22;4092;47.876;9.372;2023-04-25T03:49:00;4.60;99.90
8099;DHT22;4092;47.876;9.372;2023-04-25T03:51:27;4.50;99.90
8099;DHT22;4092;47.876;9.372;2023-04-25T03:53:54;4.50;99.90
8099;DHT22;4092;47.876;9.372;2023-04-25T03:56:23;4.50;99.90
8099;DHT22;4092;47.876;9.372;2023-04-25T03:58:50;4.50;99.90
8099;DHT22;4092;47.876;9.372;2023-04-25T04:01:17;4.40;99.90
8099;DHT22;4092;47.876;9.372;2023-04-25T04:03:44;4.40;99.90
8099;DHT22;4092;47.876;9.372;2023-04-25T04:06:11;4.40;99.90
8099;DHT22;4092;47.876;9.372;2023-04-25T04:08:38;4.40;99.90
8099;DHT22;4092;47.876;9.372;2023-04-25T04:11:05;4.40;99.90
8099;DHT22;4092;47.876;9.372;2023-04-25T04:13:34;4.50;99.90
8099;DHT22;4092;47.876;9.372;2023-04-25T04:16:01;4.60;99.90
8099;DHT22;4092;47.876;9.372;2023-04-25T04:18:29;4.50;99.90
8099;DHT22;4092;47.876;9.372;2023-04-25T04:20:56;4.50;99.90
8099;DHT22;4092;47.876;9.372;2023-04-25T04:23:23;4.40;99.90
8099;DHT22;4092;47.876;9.372;2023-04-25T04:25:52;4.40;99.90
8099;DHT22;4092;47.876;9.372;2023-04-25T04:28:19;4.50;99.90
8099;DHT22;4092;47.876;9.372;2023-04-25T04:30:48;4.40;99.90
8099;DHT22;4092;47.876;9.372;2023-04-25T04:33:17;4.40;99.90
8099;DHT22;4092;47.876;9.372;2023-04-25T04:35:45;4.40;99.90
8099;DHT22;4092;47.876;9.372;2023-04-25T04:38:14;4.30;99.90
8099;DHT22;4092;47.876;9.372;2023-04-25T04:40:41;4.30;99.90
8099;DHT22;4092;47.876;9.372;2023-04-25T04:43:09;4.30;99.90
8099;DHT22;4092;47.876;9.372;2023-04-25T04:45:36;4.30;99.90
8099;DHT22;4092;47.876;9.372;2023-04-25T04:48:07;4.40;99.90
8099;DHT22;4092;47.876;9.372;2023-04-25T04:50:34;4.50;99.90
8099;DHT22;4092;47.876;9.372;2023-04-25T04:53:03;4.50;99.90
8099;DHT22;4092;47.876;9.372;2023-04-25T04:55:30;4.50;99.90
8099;DHT22;4092;47.876;9.372;2023-04-25T04:57:57;4.50;99.90
8099;DHT22;4092;47.876;9.372;2023-04-25T05:00:25;4.60;99.90
8099;DHT22;4092;47.876;9.372;2023-04-25T05:02:52;4.60;99.90
8099;DHT22;4092;47.876;9.372;2023-04-25T05:05:22;4.60;99.90
8099;DHT22;4092;47.876;9.372;2023-04-25T05:07:52;4.70;99.90
8099;DHT22;4092;47.876;9.372;2023-04-25T05:10:19;4.80;99.90
8099;DHT22;4092;47.876;9.372;2023-04-25T05:12:46;4.90;99.90
8099;DHT22;4092;47.876;9.372;2023-04-25T05:15:14;5.00;99.90
8099;DHT22;4092;47.876;9.372;2023-04-25T05:17:42;5.10;99.90
8099;DHT22;4092;47.876;9.372;2023-04-25T05:20:10;5.30;99.90
8099;DHT22;4092;47.876;9.372;2023-04-25T05:22:38;5.40;99.90
8099;DHT22;4092;47.876;9.372;2023-04-25T05:25:07;5.50;99.90
8099;DHT22;4092;47.876;9.372;2023-04-25T05:27:36;5.60;99.90
8099;DHT22;4092;47.876;9.372;2023-04-25T05:30:07;5.60;99.90
8099;DHT22;4092;47.876;9.372;2023-04-25T05:32:36;5.70;99.90
8099;DHT22;4092;47.876;9.372;2023-04-25T05:35:10;5.70;99.90
8099;DHT22;4092;47.876;9.372;2023-04-25T05:37:40;5.70;99.90
8099;DHT22;4092;47.876;9.372;2023-04-25T05:40:08;5.80;99.90
8099;DHT22;4092;47.876;9.372;2023-04-25T05:42:35;5.80;99.90
8099;DHT22;4092;47.876;9.372;2023-04-25T05:45:04;5.80;99.90
8099;DHT22;4092;47.876;9.372;2023-04-25T05:47:31;5.80;99.90
8099;DHT22;4092;47.876;9.372;2023-04-25T05:50:00;5.80;99.90
8099;DHT22;4092;47.876;9.372;2023-04-25T05:52:28;5.80;99.90
8099;DHT22;4092;47.876;9.372;2023-04-25T05:54:58;5.80;99.90
8099;DHT22;4092;47.876;9.372;2023-04-25T05:57:26;5.80;99.90
8099;DHT22;4092;47.876;9.372;2023-04-25T05:59:54;5.80;99.90
8099;DHT22;4092;47.876;9.372;2023-04-25T06:02:22;5.90;99.90
8099;DHT22;4092;47.876;9.372;2023-04-25T06:04:52;6.00;99.90
8099;DHT22;4092;47.876;9.372;2023-04-25T06:07:21;6.00;99.90
8099;DHT22;4092;47.876;9.372;2023-04-25T06:09:49;6.20;99.90
8099;DHT22;4092;47.876;9.372;2023-04-25T06:12:20;6.30;99.90
8099;DHT22;4092;47.876;9.372;2023-04-25T06:14:47;6.30;99.90
8099;DHT22;4092;47.876;9.372;2023-04-25T06:17:16;6.40;99.90
8099;DHT22;4092;47.876;9.372;2023-04-25T06:19:43;6.50;99.90
8099;DHT22;4092;47.876;9.372;2023-04-25T06:22:10;6.60;99.90
8099;DHT22;4092;47.876;9.372;2023-04-25T06:24:37;6.70;99.90
8099;DHT22;4092;47.876;9.372;2023-04-25T06:27:04;6.80;99.90
8099;DHT22;4092;47.876;9.372;2023-04-25T06:29:33;6.90;99.90
8099;DHT22;4092;47.876;9.372;2023-04-25T06:32:00;7.00;99.90
8099;DHT22;4092;47.876;9.372;2023-04-25T06:34:27;7.30;99.90
8099;DHT22;4092;47.876;9.372;2023-04-25T06:36:54;7.40;99.90
8099;DHT22;4092;47.876;9.372;2023-04-25T06:39:21;7.50;99.90
8099;DHT22;4092;47.876;9.372;2023-04-25T06:41:50;7.60;99.90
8099;DHT22;4092;47.876;9.372;2023-04-25T06:44:17;7.50;99.90
8099;DHT22;4092;47.876;9.372;2023-04-25T06:46:45;7.50;99.90
8099;DHT22;4092;47.876;9.372;2023-04-25T06:49:12;7.50;99.90
8099;DHT22;4092;47.876;9.372;2023-04-25T06:51:41;7.60;99.90
8099;DHT22;4092;47.876;9.372;2023-04-25T06:54:09;7.80;99.90
8099;DHT22;4092;47.876;9.372;2023-04-25T06:56:36;7.80;99.90
8099;DHT22;4092;47.876;9.372;2023-04-25T06:59:03;7.80;99.90
8099;DHT22;4092;47.876;9.372;2023-04-25T07:01:30;7.70;99.90
8099;DHT22;4092;47.876;9.372;2023-04-25T07:03:58;7.70;99.90
8099;DHT22;4092;47.876;9.372;2023-04-25T07:06:25;7.70;99.90
8099;DHT22;4092;47.876;9.372;2023-04-25T07:08:53;7.80;99.90
8099;DHT22;4092;47.876;9.372;2023-04-25T07:11:21;7.80;99.90
8099;DHT22;4092;47.876;9.372;2023-04-25T07:13:48;7.70;99.90
8099;DHT22;4092;47.876;9.372;2023-04-25T07:16:16;7.80;99.90
8099;DHT22;4092;47.876;9.372;2023-04-25T07:18:43;7.90;99.90
8099;DHT22;4092;47.876;9.372;2023-04-25T07:21:11;7.80;99.90
8099;DHT22;4092;47.876;9.372;2023-04-25T07:23:38;7.80;99.90
8099;DHT22;4092;47.876;9.372;2023-04-25T07:26:06;7.80;99.90
8099;DHT22;4092;47.876;9.372;2023-04-25T07:28:33;7.60;99.90
8099;DHT22;4092;47.876;9.372;2023-04-25T07:31:00;7.50;99.90
8099;DHT22;4092;47.876;9.372;2023-04-25T07:33:33;7.50;99.90
8099;DHT22;4092;47.876;9.372;2023-04-25T07:36:00;7.40;99.90
8099;DHT22;4092;47.876;9.372;2023-04-25T07:38:28;7.30;99.90
8099;DHT22;4092;47.876;9.372;2023-04-25T07:40:55;7.30;99.90
8099;DHT22;4092;47.876;9.372;2023-04-25T07:43:23;7.20;99.90
8099;DHT22;4092;47.876;9.372;2023-04-25T07:45:50;7.20;99.90
8099;DHT22;4092;47.876;9.372;2023-04-25T07:48:18;7.00;99.90
8099;DHT22;4092;47.876;9.372;2023-04-25T07:50:45;7.10;99.90
8099;DHT22;4092;47.876;9.372;2023-04-25T07:53:12;7.10;99.90
8099;DHT22;4092;47.876;9.372;2023-04-25T07:55:41;7.00;99.90
8099;DHT22;4092;47.876;9.372;2023-04-25T07:58:08;6.90;99.90
8099;DHT22;4092;47.876;9.372;2023-04-25T08:00:35;6.80;99.90
8099;DHT22;4092;47.876;9.372;2023-04-25T08:03:03;6.60;99.90
8099;DHT22;4092;47.876;9.372;2023-04-25T08:05:30;6.50;99.90
8099;DHT22;4092;47.876;9.372;2023-04-25T08:07:57;6.40;99.90
8099;DHT22;4092;47.876;9.372;2023-04-25T08:10:28;6.30;99.90
8099;DHT22;4092;47.876;9.372;2023-04-25T08:12:57;6.10;99.90
8099;DHT22;4092;47.876;9.372;2023-04-25T08:15:25;6.00;99.90
8099;DHT22;4092;47.876;9.372;2023-04-25T08:17:52;5.80;99.90
8099;DHT22;4092;47.876;9.372;2023-04-25T08:20:21;5.60;99.90
8099;DHT22;4092;47.876;9.372;2023-04-25T08:22:49;5.30;99.90
8099;DHT22;4092;47.876;9.372;2023-04-25T08:25:16;4.90;99.90
8099;DHT22;4092;47.876;9.372;2023-04-25T08:27:44;4.40;99.90
8099;DHT22;4092;47.876;9.372;2023-04-25T08:30:15;4.20;99.90
8099;DHT22;4092;47.876;9.372;2023-04-25T08:32:43;3.90;99.90
8099;DHT22;4092;47.876;9.372;2023-04-25T08:35:13;3.70;99.90
8099;DHT22;4092;47.876;9.372;2023-04-25T08:37:41;3.50;99.90
8099;DHT22;4092;47.876;9.372;2023-04-25T08:40:14;3.30;99.90
8099;DHT22;4092;47.876;9.372;2023-04-25T08:42:42;3.10;99.90
8099;DHT22;4092;47.876;9.372;2023-04-25T08:45:10;2.90;99.90
8099;DHT22;4092;47.876;9.372;2023-04-25T08:47:39;2.80;99.90
8099;DHT22;4092;47.876;9.372;2023-04-25T08:50:07;2.80;99.90
8099;DHT22;4092;47.876;9.372;2023-04-25T08:52:37;2.80;99.90
8099;DHT22;4092;47.876;9.372;2023-04-25T08:55:07;2.80;99.90
8099;DHT22;4092;47.876;9.372;2023-04-25T08:57:37;2.90;99.90
8099;DHT22;4092;47.876;9.372;2023-04-25T09:00:07;3.10;99.90
8099;DHT22;4092;47.876;9.372;2023-04-25T09:02:34;3.20;99.90
8099;DHT22;4092;47.876;9.372;2023-04-25T09:05:04;3.20;99.90
8099;DHT22;4092;47.876;9.372;2023-04-25T09:07:32;3.30;99.90
8099;DHT22;4092;47.876;9.372;2023-04-25T09:09:59;3.40;99.90
8099;DHT22;4092;47.876;9.372;2023-04-25T09:12:29;3.50;99.90
8099;DHT22;4092;47.876;9.372;2023-04-25T09:15:08;3.60;99.90
8099;DHT22;4092;47.876;9.372;2023-04-25T09:17:37;3.70;99.90
8099;DHT22;4092;47.876;9.372;2023-04-25T09:20:09;3.80;99.90
8099;DHT22;4092;47.876;9.372;2023-04-25T09:22:38;3.70;99.90
8099;DHT22;4092;47.876;9.372;2023-04-25T09:25:11;3.70;99.90
8099;DHT22;4092;47.876;9.372;2023-04-25T09:27:49;3.80;99.90
8099;DHT22;4092;47.876;9.372;2023-04-25T09:30:17;3.90;99.90
8099;DHT22;4092;47.876;9.372;2023-04-25T09:32:44;4.00;99.90
8099;DHT22;4092;47.876;9.372;2023-04-25T09:35:23;4.10;99.90
8099;DHT22;4092;47.876;9.372;2023-04-25T09:37:50;4.20;99.90
8099;DHT22;4092;47.876;9.372;2023-04-25T09:40:18;4.30;99.90
8099;DHT22;4092;47.876;9.372;2023-04-25T09:42:46;4.30;99.90
8099;DHT22;4092;47.876;9.372;2023-04-25T09:45:13;4.30;99.90
8099;DHT22;4092;47.876;9.372;2023-04-25T09:47:41;4.20;99.90
8099;DHT22;4092;47.876;9.372;2023-04-25T09:50:16;4.20;99.90
8099;DHT22;4092;47.876;9.372;2023-04-25T09:52:45;4.20;99.90
8099;DHT22;4092;47.876;9.372;2023-04-25T09:55:13;4.30;99.90
8099;DHT22;4092;47.876;9.372;2023-04-25T09:57:41;4.30;99.90
8099;DHT22;4092;47.876;9.372;2023-04-25T10:00:10;4.30;99.90
8099;DHT22;4092;47.876;9.372;2023-04-25T10:02:42;4.10;99.90
8099;DHT22;4092;47.876;9.372;2023-04-25T10:05:11;4.10;99.90
8099;DHT22;4092;47.876;9.372;2023-04-25T10:07:41;4.10;99.90
8099;DHT22;4092;47.876;9.372;2023-04-25T10:10:08;4.20;99.90
8099;DHT22;4092;47.876;9.372;2023-04-25T10:12:38;4.20;99.90
8099;DHT22;4092;47.876;9.372;2023-04-25T10:15:09;4.20;99.90
8099;DHT22;4092;47.876;9.372;2023-04-25T10:17:40;4.40;99.90
8099;DHT22;4092;47.876;9.372;2023-04-25T10:20:11;4.50;99.90
8099;DHT22;4092;47.876;9.372;2023-04-25T10:22:44;4.60;99.90
8099;DHT22;4092;47.876;9.372;2023-04-25T10:25:14;4.70;99.90
8099;DHT22;4092;47.876;9.372;2023-04-25T10:27:41;4.60;99.90
8099;DHT22;4092;47.876;9.372;2023-04-25T10:30:10;4.90;99.90
8099;DHT22;4092;47.876;9.372;2023-04-25T10:32:42;5.20;99.90
8099;DHT22;4092;47.876;9.372;2023-04-25T10:35:12;5.50;99.90
8099;DHT22;4092;47.876;9.372;2023-04-25T10:38:13;5.70;99.90
8099;DHT22;4092;47.876;9.372;2023-04-25T10:40:41;5.90;99.90
8099;DHT22;4092;47.876;9.372;2023-04-25T10:43:35;6.10;99.90
8099;DHT22;4092;47.876;9.372;2023-04-25T10:46:03;6.20;99.90
8099;DHT22;4092;47.876;9.372;2023-04-25T10:48:44;6.30;99.90
8099;DHT22;4092;47.876;9.372;2023-04-25T10:51:16;6.40;99.90
8099;DHT22;4092;47.876;9.372;2023-04-25T10:53:46;6.60;99.90
8099;DHT22;4092;47.876;9.372;2023-04-25T10:56:17;6.90;99.90
8099;DHT22;4092;47.876;9.372;2023-04-25T10:58:47;6.90;99.90
8099;DHT22;4092;47.876;9.372;2023-04-25T11:01:19;6.80;99.90
8099;DHT22;4092;47.876;9.372;2023-04-25T11:03:46;6.70;99.90
8099;DHT22;4092;47.876;9.372;2023-04-25T11:06:22;6.50;99.90
8099;DHT22;4092;47.876;9.372;2023-04-25T11:08:51;6.60;99.90
8099;DHT22;4092;47.876;9.372;2023-04-25T11:11:19;6.60;99.90
8099;DHT22;4092;47.876;9.372;2023-04-25T11:13:48;6.80;99.90
8099;DHT22;4092;47.876;9.372;2023-04-25T11:16:16;7.10;99.90
8099;DHT22;4092;47.876;9.372;2023-04-25T11:18:44;7.10;99.90
8099;DHT22;4092;47.876;9.372;2023-04-25T11:21:11;7.30;99.90
8099;DHT22;4092;47.876;9.372;2023-04-25T11:23:40;7.40;99.90
8099;DHT22;4092;47.876;9.372;2023-04-25T11:26:08;7.60;99.90
8099;DHT22;4092;47.876;9.372;2023-04-25T11:28:36;8.00;99.90
8099;DHT22;4092;47.876;9.372;2023-04-25T11:31:04;8.30;99.90
8099;DHT22;4092;47.876;9.372;2023-04-25T11:33:32;8.40;99.90
8099;DHT22;4092;47.876;9.372;2023-04-25T11:36:00;8.60;99.90
8099;DHT22;4092;47.876;9.372;2023-04-25T11:38:27;8.40;99.90
8099;DHT22;4092;47.876;9.372;2023-04-25T11:40:55;8.20;99.90
8099;DHT22;4092;47.876;9.372;2023-04-25T11:43:23;8.10;99.90
8099;DHT22;4092;47.876;9.372;2023-04-25T11:45:50;8.10;99.90
8099;DHT22;4092;47.876;9.372;2023-04-25T11:48:18;8.30;99.90
8099;DHT22;4092;47.876;9.372;2023-04-25T11:50:47;8.40;99.90
8099;DHT22;4092;47.876;9.372;2023-04-25T11:53:14;8.60;99.90
8099;DHT22;4092;47.876;9.372;2023-04-25T11:55:45;9.10;99.90
8099;DHT22;4092;47.876;9.372;2023-04-25T11:58:13;9.50;99.90
8099;DHT22;4092;47.876;9.372;2023-04-25T12:00:44;9.70;99.90
8099;DHT22;4092;47.876;9.372;2023-04-25T12:03:11;9.70;99.90
8099;DHT22;4092;47.876;9.372;2023-04-25T12:05:38;9.70;99.90
8099;DHT22;4092;47.876;9.372;2023-04-25T12:08:12;9.90;99.90
8099;DHT22;4092;47.876;9.372;2023-04-25T12:10:40;9.60;99.90
8099;DHT22;4092;47.876;9.372;2023-04-25T12:13:21;9.20;99.90
8099;DHT22;4092;47.876;9.372;2023-04-25T12:15:50;8.80;99.90
8099;DHT22;4092;47.876;9.372;2023-04-25T12:18:19;8.70;99.90
8099;DHT22;4092;47.876;9.372;2023-04-25T12:20:47;8.80;99.90
8099;DHT22;4092;47.876;9.372;2023-04-25T12:23:14;9.00;99.90
8099;DHT22;4092;47.876;9.372;2023-04-25T12:25:43;9.00;99.90
8099;DHT22;4092;47.876;9.372;2023-04-25T12:28:13;9.20;99.90
8099;DHT22;4092;47.876;9.372;2023-04-25T12:30:59;9.50;99.90
8099;DHT22;4092;47.876;9.372;2023-04-25T12:33:27;9.40;99.90
8099;DHT22;4092;47.876;9.372;2023-04-25T12:35:55;9.40;99.90
8099;DHT22;4092;47.876;9.372;2023-04-25T12:38:24;9.50;99.90
8099;DHT22;4092;47.876;9.372;2023-04-25T12:40:51;9.30;99.90
8099;DHT22;4092;47.876;9.372;2023-04-25T12:43:19;9.00;99.90
8099;DHT22;4092;47.876;9.372;2023-04-25T12:45:47;8.70;99.90
8099;DHT22;4092;47.876;9.372;2023-04-25T12:48:17;8.60;99.90
8099;DHT22;4092;47.876;9.372;2023-04-25T12:50:44;8.50;99.90
8099;DHT22;4092;47.876;9.372;2023-04-25T12:53:14;8.50;99.90
8099;DHT22;4092;47.876;9.372;2023-04-25T12:55:44;8.60;99.90
8099;DHT22;4092;47.876;9.372;2023-04-25T12:58:13;8.70;99.90
8099;DHT22;4092;47.876;9.372;2023-04-25T13:00:41;8.70;99.90
8099;DHT22;4092;47.876;9.372;2023-04-25T13:03:08;8.80;99.90
8099;DHT22;4092;47.876;9.372;2023-04-25T13:05:39;8.80;99.90
8099;DHT22;4092;47.876;9.372;2023-04-25T13:08:08;8.90;99.90
8099;DHT22;4092;47.876;9.372;2023-04-25T13:10:36;8.90;99.90
8099;DHT22;4092;47.876;9.372;2023-04-25T13:13:04;8.80;99.90
8099;DHT22;4092;47.876;9.372;2023-04-25T13:15:34;8.70;99.90
8099;DHT22;4092;47.876;9.372;2023-04-25T13:18:02;8.80;99.90
8099;DHT22;4092;47.876;9.372;2023-04-25T13:20:30;9.10;99.90
8099;DHT22;4092;47.876;9.372;2023-04-25T13:23:17;9.40;99.90
8099;DHT22;4092;47.876;9.372;2023-04-25T13:25:44;9.40;99.90
8099;DHT22;4092;47.876;9.372;2023-04-25T13:28:11;9.30;99.90
8099;DHT22;4092;47.876;9.372;2023-04-25T13:30:39;9.90;99.90
8099;DHT22;4092;47.876;9.372;2023-04-25T13:33:08;10.60;99.90
8099;DHT22;4092;47.876;9.372;2023-04-25T13:35:37;10.80;99.90
8099;DHT22;4092;47.876;9.372;2023-04-25T13:38:05;11.40;99.90
8099;DHT22;4092;47.876;9.372;2023-04-25T13:40:35;11.90;99.90
8099;DHT22;4092;47.876;9.372;2023-04-25T13:43:02;11.90;99.90
8099;DHT22;4092;47.876;9.372;2023-04-25T13:45:43;12.00;99.90
8099;DHT22;4092;47.876;9.372;2023-04-25T13:48:13;12.00;99.90
8099;DHT22;4092;47.876;9.372;2023-04-25T13:50:41;12.40;99.90
8099;DHT22;4092;47.876;9.372;2023-04-25T13:53:12;12.80;99.90
8099;DHT22;4092;47.876;9.372;2023-04-25T13:55:41;12.90;99.90
8099;DHT22;4092;47.876;9.372;2023-04-25T13:58:08;13.20;99.90
8099;DHT22;4092;47.876;9.372;2023-04-25T14:00:36;13.60;99.90
8099;DHT22;4092;47.876;9.372;2023-04-25T14:03:04;13.00;99.90
8099;DHT22;4092;47.876;9.372;2023-04-25T14:05:34;12.20;99.90
8099;DHT22;4092;47.876;9.372;2023-04-25T14:08:05;12.60;99.90
8099;DHT22;4092;47.876;9.372;2023-04-25T14:10:32;13.10;99.90
8099;DHT22;4092;47.876;9.372;2023-04-25T14:13:13;13.60;99.90
8099;DHT22;4092;47.876;9.372;2023-04-25T14:15:41;14.00;99.90
8099;DHT22;4092;47.876;9.372;2023-04-25T14:18:08;13.70;99.90
8099;DHT22;4092;47.876;9.372;2023-04-25T14:20:35;13.10;99.90
8099;DHT22;4092;47.876;9.372;2023-04-25T14:23:02;12.40;99.90
8099;DHT22;4092;47.876;9.372;2023-04-25T14:25:31;11.70;99.90
8099;DHT22;4092;47.876;9.372;2023-04-25T14:27:58;11.70;99.90
8099;DHT22;4092;47.876;9.372;2023-04-25T14:30:26;11.70;99.90
8099;DHT22;4092;47.876;9.372;2023-04-25T14:32:54;11.90;99.90
8099;DHT22;4092;47.876;9.372;2023-04-25T14:35:21;12.10;99.90
8099;DHT22;4092;47.876;9.372;2023-04-25T14:37:48;12.90;99.90
8099;DHT22;4092;47.876;9.372;2023-04-25T14:40:15;13.50;99.90
8099;DHT22;4092;47.876;9.372;2023-04-25T14:42:43;13.40;99.90
8099;DHT22;4092;47.876;9.372;2023-04-25T14:45:11;13.00;99.90
8099;DHT22;4092;47.876;9.372;2023-04-25T14:47:40;13.20;99.90
8099;DHT22;4092;47.876;9.372;2023-04-25T14:50:08;12.80;99.90
8099;DHT22;4092;47.876;9.372;2023-04-25T14:52:36;12.30;99.90
8099;DHT22;4092;47.876;9.372;2023-04-25T14:55:03;12.00;99.90
8099;DHT22;4092;47.876;9.372;2023-04-25T14:57:31;12.50;99.90
8099;DHT22;4092;47.876;9.372;2023-04-25T14:59:58;13.20;99.90
8099;DHT22;4092;47.876;9.372;2023-04-25T15:02:26;13.80;99.90
8099;DHT22;4092;47.876;9.372;2023-04-25T15:04:55;14.20;99.90
8099;DHT22;4092;47.876;9.372;2023-04-25T15:07:22;14.20;99.90
8099;DHT22;4092;47.876;9.372;2023-04-25T15:09:49;14.10;99.90
8099;DHT22;4092;47.876;9.372;2023-04-25T15:12:18;14.10;99.90
8099;DHT22;4092;47.876;9.372;2023-04-25T15:14:45;14.40;99.90
8099;DHT22;4092;47.876;9.372;2023-04-25T15:17:13;14.00;99.90
8099;DHT22;4092;47.876;9.372;2023-04-25T15:19:41;14.00;99.90
8099;DHT22;4092;47.876;9.372;2023-04-25T15:22:09;13.70;99.90
8099;DHT22;4092;47.876;9.372;2023-04-25T15:24:36;13.40;99.90
8099;DHT22;4092;47.876;9.372;2023-04-25T15:27:03;13.10;99.90
8099;DHT22;4092;47.876;9.372;2023-04-25T15:29:31;13.30;99.90
8099;DHT22;4092;47.876;9.372;2023-04-25T15:31:58;13.20;99.90
8099;DHT22;4092;47.876;9.372;2023-04-25T15:34:25;13.50;99.90
8099;DHT22;4092;47.876;9.372;2023-04-25T15:36:53;13.40;99.90
8099;DHT22;4092;47.876;9.372;2023-04-25T15:39:21;13.30;99.90
8099;DHT22;4092;47.876;9.372;2023-04-25T15:41:49;13.10;99.90
8099;DHT22;4092;47.876;9.372;2023-04-25T15:44:16;12.60;99.90
8099;DHT22;4092;47.876;9.372;2023-04-25T15:46:43;12.30;99.90
8099;DHT22;4092;47.876;9.372;2023-04-25T15:49:11;11.90;99.90
8099;DHT22;4092;47.876;9.372;2023-04-25T15:51:38;11.60;99.90
8099;DHT22;4092;47.876;9.372;2023-04-25T15:54:05;11.10;99.90
8099;DHT22;4092;47.876;9.372;2023-04-25T15:56:34;10.90;99.90
8099;DHT22;4092;47.876;9.372;2023-04-25T15:59:01;10.70;99.90
8099;DHT22;4092;47.876;9.372;2023-04-25T16:01:28;10.50;99.90
8099;DHT22;4092;47.876;9.372;2023-04-25T16:03:56;10.20;99.90
8099;DHT22;4092;47.876;9.372;2023-04-25T16:06:23;10.20;99.90
8099;DHT22;4092;47.876;9.372;2023-04-25T16:08:52;10.10;99.90
8099;DHT22;4092;47.876;9.372;2023-04-25T16:11:19;10.30;99.90
8099;DHT22;4092;47.876;9.372;2023-04-25T16:13:48;10.80;99.90
8099;DHT22;4092;47.876;9.372;2023-04-25T16:16:15;11.10;99.90
8099;DHT22;4092;47.876;9.372;2023-04-25T16:18:42;11.10;99.90
8099;DHT22;4092;47.876;9.372;2023-04-25T16:21:10;11.10;99.90